createdAt,value
2022-10-22T00:01:26.812Z,10.00
2022-10-22T00:04:01.030Z,10.50
2022-10-22T00:06:34.719Z,8.70
2022-10-22T00:09:09.134Z,9.20
2022-10-22T00:11:42.401Z,9.70
2022-10-22T00:14:16.644Z,11.00
2022-10-22T00:16:49.851Z,8.70
2022-10-22T00:19:23.726Z,13.00
2022-10-22T00:21:57.972Z,8.70
2022-10-22T00:24:31.365Z,9.90
2022-10-22T00:27:06.542Z,10.90
2022-10-22T00:29:39.892Z,11.80
2022-10-22T00:32:13.738Z,14.30
2022-10-22T00:34:48.452Z,11.00
2022-10-22T00:37:21.289Z,11.20
2022-10-22T00:39:55.185Z,10.70
2022-10-22T00:42:29.951Z,10.80
2022-10-22T00:45:24.491Z,12.80
2022-10-22T00:48:14.651Z,15.20
2022-10-22T00:50:55.270Z,10.70
2022-10-22T00:53:35.763Z,10.90
2022-10-22T00:56:11.210Z,11.00
2022-10-22T00:58:54.764Z,12.00
2022-10-22T01:01:32.602Z,11.30
2022-10-22T01:04:06.777Z,13.00
2022-10-22T01:06:40.800Z,12.40
2022-10-22T01:09:32.002Z,14.00
2022-10-22T01:12:17.178Z,13.90
2022-10-22T01:15:08.926Z,11.40
2022-10-22T01:17:53.475Z,14.50
2022-10-22T01:21:00.549Z,13.80
2022-10-22T01:24:25.935Z,14.20
2022-10-22T01:27:27.412Z,14.20
2022-10-22T01:30:08.533Z,12.20
2022-10-22T01:32:49.265Z,12.30
2022-10-22T01:35:28.450Z,13.70
2022-10-22T01:38:08.796Z,11.00
2022-10-22T01:40:43.230Z,13.30
2022-10-22T01:43:18.130Z,13.30
2022-10-22T01:45:55.720Z,13.90
2022-10-22T01:48:46.671Z,12.30
2022-10-22T01:51:39.466Z,16.50
2022-10-22T01:54:31.363Z,13.00
2022-10-22T01:57:20.649Z,11.90
2022-10-22T02:00:03.411Z,12.90
2022-10-22T02:02:50.899Z,15.20
2022-10-22T02:05:33.816Z,16.50
2022-10-22T02:08:11.244Z,12.80
2022-10-22T02:10:48.818Z,15.50
2022-10-22T02:13:27.641Z,14.50
2022-10-22T02:16:04.399Z,12.10
2022-10-22T02:18:41.801Z,14.60
2022-10-22T02:21:15.832Z,12.30
2022-10-22T02:23:51.179Z,13.00
2022-10-22T02:26:33.180Z,10.40
2022-10-22T02:29:13.820Z,13.20
2022-10-22T02:31:50.803Z,14.80
2022-10-22T02:34:33.410Z,11.00
2022-10-22T02:37:09.338Z,12.00
2022-10-22T02:39:44.764Z,13.50
2022-10-22T02:42:18.849Z,6.10
2022-10-22T02:44:52.432Z,11.10
2022-10-22T02:47:26.307Z,9.90
2022-10-22T02:49:59.993Z,11.10
2022-10-22T02:52:32.689Z,12.00
2022-10-22T02:55:06.816Z,12.30
2022-10-22T02:57:39.553Z,9.00
2022-10-22T03:00:19.047Z,11.60
2022-10-22T03:02:52.031Z,11.00
2022-10-22T03:05:25.482Z,10.60
2022-10-22T03:07:58.767Z,11.00
2022-10-22T03:10:32.782Z,11.80
2022-10-22T03:13:05.574Z,10.00
2022-10-22T03:15:39.088Z,10.00
2022-10-22T03:18:12.342Z,11.40
2022-10-22T03:20:45.381Z,9.10
2022-10-22T03:23:22.552Z,10.60
2022-10-22T03:25:57.004Z,12.30
2022-10-22T03:28:30.964Z,9.10
2022-10-22T03:31:03.935Z,10.60
2022-10-22T03:33:36.951Z,11.20
2022-10-22T03:36:14.192Z,13.80
2022-10-22T03:38:48.418Z,12.90
2022-10-22T03:41:22.337Z,12.40
2022-10-22T03:43:55.398Z,12.20
2022-10-22T03:46:29.030Z,12.90
2022-10-22T03:49:01.759Z,13.30
2022-10-22T03:51:35.462Z,13.80
2022-10-22T03:54:09.396Z,13.30
2022-10-22T03:56:42.460Z,10.50
2022-10-22T03:59:15.742Z,11.40
2022-10-22T04:01:48.926Z,10.60
2022-10-22T04:04:22.796Z,11.50
2022-10-22T04:06:55.723Z,10.50
2022-10-22T04:09:31.568Z,11.90
2022-10-22T04:12:04.929Z,11.60
2022-10-22T04:14:38.953Z,11.00
2022-10-22T04:17:11.713Z,12.30
2022-10-22T04:19:45.281Z,10.40
2022-10-22T04:22:18.456Z,10.70
2022-10-22T04:24:52.314Z,12.90
2022-10-22T04:27:25.145Z,12.40
2022-10-22T04:29:58.869Z,13.70
2022-10-22T04:32:31.787Z,12.20
2022-10-22T04:35:06.956Z,11.70
2022-10-22T04:37:40.104Z,13.80
2022-10-22T04:40:18.283Z,11.50
2022-10-22T04:42:51.709Z,12.90
2022-10-22T04:45:25.576Z,13.40
2022-10-22T04:47:59.694Z,12.40
2022-10-22T04:50:33.667Z,12.10
2022-10-22T04:53:06.471Z,13.20
2022-10-22T04:55:39.590Z,14.30
2022-10-22T04:58:13.100Z,13.10
2022-10-22T05:00:46.980Z,13.80
2022-10-22T05:03:20.706Z,12.30
2022-10-22T05:05:53.496Z,12.30
2022-10-22T05:08:27.640Z,15.50
2022-10-22T05:11:00.965Z,11.90
2022-10-22T05:13:35.217Z,11.90
2022-10-22T05:16:10.123Z,11.40
2022-10-22T05:18:45.144Z,15.10
2022-10-22T05:21:20.692Z,13.50
2022-10-22T05:23:55.194Z,11.60
2022-10-22T05:26:29.627Z,14.30
2022-10-22T05:29:03.029Z,12.40
2022-10-22T05:31:35.813Z,17.20
2022-10-22T05:34:09.010Z,11.30
2022-10-22T05:36:41.578Z,11.20
2022-10-22T05:39:15.769Z,11.20
2022-10-22T05:41:49.045Z,12.70
2022-10-22T05:44:21.792Z,13.40
2022-10-22T05:46:54.976Z,11.60
2022-10-22T05:49:27.643Z,13.10
2022-10-22T05:52:00.533Z,11.90
2022-10-22T05:54:33.501Z,11.20
2022-10-22T05:57:06.819Z,12.00
2022-10-22T05:59:40.589Z,14.50
2022-10-22T06:02:14.793Z,11.40
2022-10-22T06:04:49.470Z,10.00
2022-10-22T06:07:23.793Z,14.30
2022-10-22T06:09:56.925Z,11.20
2022-10-22T06:12:30.592Z,10.10
2022-10-22T06:15:04.396Z,11.30
2022-10-22T06:17:36.823Z,10.20
2022-10-22T06:20:15.947Z,11.70
2022-10-22T06:22:49.746Z,12.40
2022-10-22T06:25:23.542Z,11.70
2022-10-22T06:27:56.327Z,11.80
2022-10-22T06:30:28.989Z,12.00
2022-10-22T06:33:02.249Z,13.10
2022-10-22T06:35:35.153Z,12.60
2022-10-22T06:38:08.919Z,13.60
2022-10-22T06:40:43.578Z,13.00
2022-10-22T06:43:18.147Z,13.40
2022-10-22T06:45:51.531Z,11.90
2022-10-22T06:48:24.060Z,15.60
2022-10-22T06:50:57.707Z,13.80
2022-10-22T06:53:31.027Z,15.30
2022-10-22T06:56:07.929Z,12.80
2022-10-22T06:58:40.972Z,15.20
2022-10-22T07:01:16.449Z,12.80
2022-10-22T07:03:50.612Z,12.50
2022-10-22T07:06:24.461Z,12.40
2022-10-22T07:08:59.738Z,12.10
2022-10-22T07:11:40.556Z,13.00
2022-10-22T07:14:15.695Z,14.80
2022-10-22T07:16:49.181Z,12.80
2022-10-22T07:19:22.562Z,11.20
2022-10-22T07:21:55.543Z,12.40
2022-10-22T07:24:29.786Z,14.90
2022-10-22T07:27:04.378Z,14.90
2022-10-22T07:29:39.860Z,12.60
2022-10-22T07:32:13.304Z,13.60
2022-10-22T07:34:46.811Z,15.70
2022-10-22T07:37:21.413Z,11.80
2022-10-22T07:39:54.638Z,12.60
2022-10-22T07:45:01.227Z,10.50
2022-10-22T07:47:35.227Z,11.30
2022-10-22T07:50:10.103Z,15.40
2022-10-22T07:52:46.946Z,13.80
2022-10-22T07:55:21.653Z,10.80
2022-10-22T07:57:56.289Z,14.20
2022-10-22T08:00:29.730Z,13.20
2022-10-22T08:03:02.866Z,15.50
2022-10-22T08:05:36.085Z,14.10
2022-10-22T08:08:10.822Z,15.00
2022-10-22T08:10:43.732Z,11.00
2022-10-22T08:13:16.952Z,11.20
2022-10-22T08:15:52.431Z,11.50
2022-10-22T08:18:29.476Z,12.20
2022-10-22T08:21:03.788Z,12.90
2022-10-22T08:23:37.336Z,13.70
2022-10-22T08:26:11.720Z,11.40
2022-10-22T08:28:43.868Z,11.70
2022-10-22T08:31:17.160Z,10.70
2022-10-22T08:33:50.432Z,13.30
2022-10-22T08:36:23.249Z,13.70
2022-10-22T08:38:56.725Z,12.50
2022-10-22T08:41:30.947Z,9.60
2022-10-22T08:44:51.687Z,13.90
2022-10-22T08:48:06.786Z,11.80
2022-10-22T08:50:49.049Z,12.70
2022-10-22T08:53:30.820Z,13.50
2022-10-22T08:56:03.741Z,9.20
2022-10-22T08:58:47.379Z,11.10
2022-10-22T09:01:25.515Z,11.10
2022-10-22T09:04:07.737Z,11.80
2022-10-22T09:06:43.869Z,13.20
2022-10-22T09:09:20.966Z,12.80
2022-10-22T09:12:06.546Z,15.30
2022-10-22T09:14:39.194Z,13.50
2022-10-22T09:17:34.145Z,11.40
2022-10-22T09:20:25.885Z,13.10
2022-10-22T09:23:18.588Z,11.60
2022-10-22T09:25:53.418Z,12.70
2022-10-22T09:28:24.921Z,12.90
2022-10-22T09:33:32.467Z,12.80
2022-10-22T09:36:09.432Z,12.00
2022-10-22T09:38:50.091Z,13.20
2022-10-22T09:41:29.561Z,11.60
2022-10-22T09:44:02.127Z,12.60
2022-10-22T09:46:45.134Z,12.00
2022-10-22T09:49:22.880Z,10.20
2022-10-22T09:51:58.902Z,11.70
2022-10-22T09:54:43.308Z,11.50
2022-10-22T09:57:27.491Z,11.20
2022-10-22T10:00:00.824Z,9.50
2022-10-22T10:02:38.804Z,11.30
2022-10-22T10:05:29.600Z,12.30
2022-10-22T10:08:09.249Z,15.10
2022-10-22T10:10:52.365Z,12.50
2022-10-22T10:13:48.600Z,12.90
2022-10-22T10:16:44.018Z,14.60
2022-10-22T10:19:54.583Z,13.80
2022-10-22T10:22:49.042Z,11.70
2022-10-22T10:25:54.128Z,12.20
2022-10-22T10:28:52.201Z,15.30
2022-10-22T10:31:41.442Z,12.80
2022-10-22T10:34:37.178Z,12.30
2022-10-22T10:37:26.660Z,16.00
2022-10-22T10:40:24.063Z,11.00
2022-10-22T10:43:11.761Z,13.90
2022-10-22T10:45:58.298Z,12.40
2022-10-22T10:49:02.723Z,13.90
2022-10-22T10:51:54.941Z,12.20
2022-10-22T10:54:45.733Z,17.70
2022-10-22T10:57:39.649Z,15.50
2022-10-22T11:00:19.469Z,14.20
2022-10-22T11:03:35.528Z,15.00
2022-10-22T11:06:10.866Z,14.40
2022-10-22T11:08:54.752Z,17.60
2022-10-22T11:11:38.339Z,17.50
2022-10-22T11:14:20.303Z,19.10
2022-10-22T11:17:02.629Z,13.30
2022-10-22T11:19:51.549Z,14.50
2022-10-22T11:22:34.974Z,13.40
2022-10-22T11:25:23.608Z,15.40
2022-10-22T11:28:07.757Z,14.60
2022-10-22T11:30:46.710Z,11.80
2022-10-22T11:33:23.118Z,13.70
2022-10-22T11:35:59.549Z,15.40
2022-10-22T11:38:34.958Z,14.60
2022-10-22T11:41:15.255Z,13.20
2022-10-22T11:44:23.282Z,14.30
2022-10-22T11:47:18.394Z,15.40
2022-10-22T11:50:04.857Z,13.30
2022-10-22T11:53:07.415Z,16.40
2022-10-22T11:55:49.242Z,13.60
2022-10-22T11:58:44.137Z,15.40
2022-10-22T12:01:41.511Z,14.30
2022-10-22T12:04:49.369Z,16.20
2022-10-22T12:07:51.972Z,12.20
2022-10-22T12:10:37.150Z,13.40
2022-10-22T12:13:22.569Z,13.80
2022-10-22T12:15:58.252Z,14.20
2022-10-22T12:18:40.983Z,15.30
2022-10-22T12:21:18.522Z,9.90
2022-10-22T12:23:52.325Z,11.40
2022-10-22T12:29:11.482Z,8.30
2022-10-22T12:31:47.241Z,6.20
2022-10-22T12:34:23.219Z,7.20
2022-10-22T12:36:57.051Z,3.90
2022-10-22T12:39:34.828Z,5.10
2022-10-22T12:42:14.269Z,4.70
2022-10-22T12:44:48.692Z,3.00
2022-10-22T12:47:22.905Z,2.60
2022-10-22T12:49:56.078Z,3.50
2022-10-22T12:52:29.340Z,4.20
2022-10-22T12:55:07.806Z,4.70
2022-10-22T12:57:41.326Z,5.70
2022-10-22T13:00:33.848Z,5.70
2022-10-22T13:03:09.256Z,6.00
2022-10-22T13:05:43.642Z,3.90
2022-10-22T13:11:07.549Z,5.30
2022-10-22T13:13:46.474Z,4.10
2022-10-22T13:16:23.556Z,6.10
2022-10-22T13:18:58.204Z,4.80
2022-10-22T13:21:39.625Z,4.10
2022-10-22T13:24:27.905Z,7.40
2022-10-22T13:27:01.924Z,5.90
2022-10-22T13:29:35.282Z,7.10
2022-10-22T13:32:22.159Z,9.00
2022-10-22T13:34:55.533Z,6.40
2022-10-22T13:37:32.277Z,8.00
2022-10-22T13:40:15.018Z,6.90
2022-10-22T13:42:48.366Z,6.90
2022-10-22T13:45:23.013Z,10.00
2022-10-22T13:47:58.382Z,7.10
2022-10-22T13:50:32.024Z,10.80
2022-10-22T13:53:05.466Z,5.70
2022-10-22T13:55:39.212Z,6.80
2022-10-22T14:00:55.040Z,5.70
2022-10-22T14:03:32.729Z,9.50
2022-10-22T14:06:07.041Z,7.30
2022-10-22T14:08:40.428Z,7.70
2022-10-22T14:11:15.619Z,8.60
2022-10-22T14:13:49.644Z,6.30
2022-10-22T14:16:27.802Z,9.30
2022-10-22T14:19:01.251Z,7.30
2022-10-22T14:21:37.128Z,5.40
2022-10-22T14:24:13.407Z,8.10
2022-10-22T14:26:46.843Z,5.50
2022-10-22T14:29:20.471Z,6.90
2022-10-22T14:31:54.272Z,8.60
2022-10-22T14:34:28.058Z,7.30
2022-10-22T14:37:01.475Z,6.40
2022-10-22T14:39:34.350Z,5.60
2022-10-22T14:42:09.024Z,9.40
2022-10-22T14:44:42.335Z,7.70
2022-10-22T14:47:15.504Z,9.10
2022-10-22T14:49:49.133Z,7.00
2022-10-22T14:52:22.914Z,9.00
2022-10-22T14:54:56.653Z,7.80
2022-10-22T14:57:30.763Z,7.80
2022-10-22T15:00:03.900Z,8.10
2022-10-22T15:02:40.213Z,8.80
2022-10-22T15:05:14.266Z,8.30
2022-10-22T15:07:47.458Z,10.30
2022-10-22T15:10:21.962Z,9.80
2022-10-22T15:12:55.591Z,9.30
2022-10-22T15:15:33.999Z,7.50
2022-10-22T15:18:12.131Z,8.70
2022-10-22T15:20:45.921Z,5.90
2022-10-22T15:23:19.169Z,8.50
2022-10-22T15:25:53.187Z,8.00
2022-10-22T15:28:26.417Z,8.80
2022-10-22T15:31:02.042Z,9.40
2022-10-22T15:33:34.772Z,7.40
2022-10-22T15:36:19.109Z,8.50
2022-10-22T15:38:52.470Z,6.80
2022-10-22T15:41:25.800Z,9.30
2022-10-22T15:43:58.881Z,9.60
2022-10-22T15:46:34.704Z,10.20
2022-10-22T15:49:09.980Z,9.00
2022-10-22T15:51:43.797Z,8.40
2022-10-22T15:54:20.447Z,7.80
2022-10-22T15:56:52.916Z,7.10
2022-10-22T15:59:26.072Z,9.90
2022-10-22T16:02:00.362Z,10.80
2022-10-22T16:04:33.798Z,8.00
2022-10-22T16:07:06.436Z,11.60
2022-10-22T16:09:39.829Z,10.80
2022-10-22T16:12:15.380Z,11.70
2022-10-22T16:14:52.836Z,8.90
2022-10-22T16:17:25.598Z,8.60
2022-10-22T16:19:58.944Z,10.80
2022-10-22T16:22:32.921Z,10.50
2022-10-22T16:25:06.255Z,7.30
2022-10-22T16:27:39.954Z,10.00
2022-10-22T16:30:17.688Z,7.50
2022-10-22T16:32:52.508Z,8.00
2022-10-22T16:35:26.373Z,7.40
2022-10-22T16:37:59.167Z,10.60
2022-10-22T16:40:31.991Z,9.00
2022-10-22T16:43:04.864Z,6.50
2022-10-22T16:45:38.890Z,9.00
2022-10-22T16:48:14.644Z,7.20
2022-10-22T16:50:48.224Z,7.80
2022-10-22T16:53:23.560Z,7.10
2022-10-22T16:55:56.852Z,6.10
2022-10-22T16:58:30.314Z,8.00
2022-10-22T17:01:08.244Z,8.60
2022-10-22T17:03:42.114Z,8.80
2022-10-22T17:06:15.843Z,7.00
2022-10-22T17:08:48.856Z,7.10
2022-10-22T17:11:25.272Z,8.10
2022-10-22T17:13:58.895Z,7.10
2022-10-22T17:16:32.451Z,6.90
2022-10-22T17:19:07.473Z,8.00
2022-10-22T17:21:40.167Z,7.80
2022-10-22T17:24:15.435Z,7.40
2022-10-22T17:26:49.862Z,7.10
2022-10-22T17:29:24.770Z,6.00
2022-10-22T17:31:58.652Z,8.80
2022-10-22T17:34:33.333Z,13.50
2022-10-22T17:37:06.694Z,10.30
2022-10-22T17:39:40.908Z,12.30
2022-10-22T17:42:14.673Z,8.10
2022-10-22T17:44:47.783Z,10.90
2022-10-22T17:47:20.799Z,8.30
2022-10-22T17:49:53.445Z,8.20
2022-10-22T17:52:27.201Z,8.60
2022-10-22T17:55:00.587Z,8.10
2022-10-22T17:57:33.825Z,8.80
2022-10-22T18:00:11.612Z,7.70
2022-10-22T18:02:44.536Z,5.40
2022-10-22T18:05:18.353Z,8.70
2022-10-22T18:07:54.227Z,8.40
2022-10-22T18:10:27.292Z,8.70
2022-10-22T18:12:59.808Z,7.90
2022-10-22T18:15:36.937Z,6.10
2022-10-22T18:18:10.376Z,7.70
2022-10-22T18:20:43.350Z,9.30
2022-10-22T18:23:17.073Z,7.60
2022-10-22T18:25:49.942Z,5.60
2022-10-22T18:28:23.764Z,8.30
2022-10-22T18:30:56.714Z,10.50
2022-10-22T18:33:30.564Z,7.90
2022-10-22T18:36:11.196Z,7.10
2022-10-22T18:38:43.937Z,9.50
2022-10-22T18:41:19.113Z,9.60
2022-10-22T18:43:56.135Z,11.20
2022-10-22T18:46:30.266Z,11.00
2022-10-22T18:49:03.368Z,7.80
2022-10-22T18:51:35.920Z,7.50
2022-10-22T18:54:22.656Z,7.40
2022-10-22T18:57:01.889Z,8.70
2022-10-22T18:59:37.196Z,6.90
2022-10-22T19:02:11.162Z,9.50
2022-10-22T19:04:44.598Z,4.20
2022-10-22T19:07:18.102Z,5.10
2022-10-22T19:09:52.524Z,5.40
2022-10-22T19:12:26.078Z,6.10
2022-10-22T19:14:59.963Z,8.30
2022-10-22T19:17:33.576Z,6.90
2022-10-22T19:20:09.839Z,7.40
2022-10-22T19:22:42.913Z,6.40
2022-10-22T19:25:16.295Z,6.30
2022-10-22T19:27:49.439Z,8.10
2022-10-22T19:30:23.649Z,7.10
2022-10-22T19:32:57.150Z,5.60
2022-10-22T19:35:30.743Z,8.60
2022-10-22T19:38:04.108Z,6.90
2022-10-22T19:40:36.535Z,8.00
2022-10-22T19:43:09.961Z,5.70
2022-10-22T19:45:45.418Z,6.30
2022-10-22T19:48:18.522Z,7.40
2022-10-22T19:50:59.031Z,6.20
2022-10-22T19:53:34.094Z,7.60
2022-10-22T19:56:10.652Z,6.70
2022-10-22T19:58:44.140Z,4.90
2022-10-22T20:01:19.607Z,7.00
2022-10-22T20:03:54.040Z,6.10
2022-10-22T20:06:26.591Z,6.50
2022-10-22T20:08:59.285Z,8.10
2022-10-22T20:11:36.826Z,7.50
2022-10-22T20:14:11.425Z,7.00
2022-10-22T20:16:45.095Z,6.00
2022-10-22T20:19:18.686Z,6.80
2022-10-22T20:21:52.513Z,6.60
2022-10-22T20:24:26.266Z,7.70
2022-10-22T20:27:00.955Z,6.70
2022-10-22T20:29:35.054Z,7.80
2022-10-22T20:32:09.562Z,9.80
2022-10-22T20:34:46.666Z,9.00
2022-10-22T20:37:20.108Z,7.90
2022-10-22T20:39:55.026Z,8.40
2022-10-22T20:42:33.163Z,7.20
2022-10-22T20:45:08.173Z,8.10
2022-10-22T20:47:51.318Z,14.20
2022-10-22T20:50:33.211Z,10.70
2022-10-22T20:53:06.864Z,9.70
2022-10-22T20:55:40.374Z,7.30
2022-10-22T20:58:13.636Z,10.00
2022-10-22T21:00:47.066Z,7.80
2022-10-22T21:03:19.996Z,6.70
2022-10-22T21:05:52.892Z,6.10
2022-10-22T21:08:32.398Z,7.00
2022-10-22T21:11:05.936Z,5.90
2022-10-22T21:13:40.069Z,6.20
2022-10-22T21:16:19.155Z,9.70
2022-10-22T21:18:52.751Z,7.20
2022-10-22T21:21:25.471Z,7.10
2022-10-22T21:23:59.572Z,7.30
2022-10-22T21:26:33.145Z,6.50
2022-10-22T21:29:06.480Z,7.40
2022-10-22T21:31:40.522Z,7.10
2022-10-22T21:34:14.719Z,8.40
2022-10-22T21:36:50.607Z,6.60
2022-10-22T21:39:24.247Z,5.30
2022-10-22T21:41:57.505Z,9.00
2022-10-22T21:44:32.466Z,6.70
2022-10-22T21:47:06.112Z,7.50
2022-10-22T21:49:40.024Z,8.20
2022-10-22T21:52:14.336Z,6.90
2022-10-22T21:54:48.032Z,8.10
2022-10-22T21:57:21.566Z,5.90
2022-10-22T21:59:55.051Z,6.30
2022-10-22T22:02:28.176Z,7.30
2022-10-22T22:05:02.241Z,9.30
2022-10-22T22:07:36.148Z,9.30
2022-10-22T22:10:14.033Z,7.40
2022-10-22T22:12:48.168Z,8.40
2022-10-22T22:15:22.321Z,8.80
2022-10-22T22:17:55.728Z,9.00
2022-10-22T22:20:28.691Z,6.60
2022-10-22T22:23:02.526Z,7.40
2022-10-22T22:25:53.692Z,10.20
2022-10-22T22:28:27.309Z,10.10
2022-10-22T22:31:00.144Z,8.50
2022-10-22T22:33:33.609Z,8.90
2022-10-22T22:36:09.027Z,7.90
2022-10-22T22:38:42.147Z,8.90
2022-10-22T22:41:15.291Z,5.60
2022-10-22T22:43:48.758Z,6.40
2022-10-22T22:46:22.061Z,9.40
2022-10-22T22:48:56.329Z,9.10
2022-10-22T22:51:28.957Z,6.60
2022-10-22T22:54:02.817Z,7.50
2022-10-22T22:56:36.991Z,7.20
2022-10-22T22:59:11.435Z,7.00
2022-10-22T23:01:44.912Z,7.20
2022-10-22T23:04:22.182Z,7.90
2022-10-22T23:06:55.526Z,6.20
2022-10-22T23:09:28.215Z,9.50
2022-10-22T23:12:01.980Z,6.80
2022-10-22T23:14:35.485Z,8.20
2022-10-22T23:17:09.481Z,8.20
2022-10-22T23:19:42.043Z,8.00
2022-10-22T23:22:15.371Z,6.50
2022-10-22T23:24:48.446Z,9.30
2022-10-22T23:27:21.448Z,9.50
2022-10-22T23:29:54.297Z,6.70
2022-10-22T23:32:27.769Z,11.90
2022-10-22T23:35:00.812Z,8.10
2022-10-22T23:37:33.779Z,9.10
2022-10-22T23:40:10.376Z,8.70
2022-10-22T23:42:44.483Z,7.30
2022-10-22T23:45:17.447Z,7.40
2022-10-22T23:47:50.867Z,8.80
2022-10-22T23:50:24.278Z,10.10
2022-10-22T23:52:57.325Z,9.30
2022-10-22T23:55:30.920Z,8.60
2022-10-22T23:58:04.198Z,7.70
